createdAt,value
2022-09-14T00:01:43.863Z,21.10
2022-09-14T00:04:14.463Z,21.10
2022-09-14T00:06:46.573Z,21.10
2022-09-14T00:09:21.819Z,21.10
2022-09-14T00:11:51.584Z,21.00
2022-09-14T00:14:20.609Z,21.00
2022-09-14T00:16:48.985Z,21.10
2022-09-14T00:19:19.448Z,21.10
2022-09-14T00:21:50.876Z,21.10
2022-09-14T00:24:18.928Z,20.90
2022-09-14T00:26:50.005Z,21.00
2022-09-14T00:29:20.701Z,21.00
2022-09-14T00:31:48.672Z,20.90
2022-09-14T00:34:18.176Z,20.90
2022-09-14T00:36:48.083Z,20.90
2022-09-14T00:39:17.183Z,20.90
2022-09-14T00:41:46.842Z,20.90
2022-09-14T00:44:53.612Z,21.00
2022-09-14T00:47:22.902Z,21.00
2022-09-14T00:49:51.031Z,21.10
2022-09-14T00:52:21.450Z,21.00
2022-09-14T00:54:52.093Z,21.00
2022-09-14T00:57:28.557Z,21.00
2022-09-14T00:59:57.234Z,21.00
2022-09-14T01:02:29.126Z,21.00
2022-09-14T01:04:57.648Z,21.00
2022-09-14T01:07:44.607Z,21.10
2022-09-14T01:10:24.260Z,21.00
2022-09-14T01:13:04.139Z,21.10
2022-09-14T01:15:39.466Z,21.10
2022-09-14T01:18:16.262Z,21.00
2022-09-14T01:20:49.717Z,21.10
2022-09-14T01:23:25.691Z,21.00
2022-09-14T01:26:32.712Z,21.10
2022-09-14T01:29:04.263Z,20.90
2022-09-14T01:31:37.251Z,20.80
2022-09-14T01:34:10.591Z,20.80
2022-09-14T01:36:42.806Z,20.90
2022-09-14T01:39:13.376Z,20.70
2022-09-14T01:41:43.350Z,20.80
2022-09-14T01:44:17.994Z,20.70
2022-09-14T01:46:48.403Z,20.70
2022-09-14T01:49:20.181Z,20.70
2022-09-14T01:51:50.259Z,20.70
2022-09-14T01:54:23.208Z,20.70
2022-09-14T01:56:54.112Z,20.80
2022-09-14T01:59:26.382Z,20.90
2022-09-14T02:01:58.250Z,20.90
2022-09-14T02:04:32.544Z,20.90
2022-09-14T02:07:00.797Z,20.80
2022-09-14T02:09:29.144Z,20.70
2022-09-14T02:12:00.793Z,20.70
2022-09-14T02:14:31.598Z,20.70
2022-09-14T02:17:00.092Z,20.60
2022-09-14T02:19:33.915Z,20.60
2022-09-14T02:22:01.803Z,20.50
2022-09-14T02:24:30.665Z,20.60
2022-09-14T02:26:59.737Z,20.60
2022-09-14T02:29:27.905Z,20.50
2022-09-14T02:32:12.468Z,20.50
2022-09-14T02:34:50.755Z,20.50
2022-09-14T02:37:23.420Z,20.40
2022-09-14T02:39:58.397Z,20.40
2022-09-14T02:42:37.207Z,20.40
2022-09-14T02:45:12.834Z,20.40
2022-09-14T02:47:55.410Z,20.30
2022-09-14T02:50:29.760Z,20.30
2022-09-14T02:53:05.099Z,20.40
2022-09-14T02:55:44.707Z,20.40
2022-09-14T02:58:14.724Z,20.50
2022-09-14T03:00:45.107Z,20.40
2022-09-14T03:03:16.377Z,20.30
2022-09-14T03:05:44.840Z,20.40
2022-09-14T03:08:13.089Z,20.50
2022-09-14T03:10:44.048Z,20.30
2022-09-14T03:13:12.769Z,20.40
2022-09-14T03:15:41.487Z,20.30
2022-09-14T03:18:14.267Z,20.40
2022-09-14T03:20:44.276Z,20.40
2022-09-14T03:23:13.062Z,20.30
2022-09-14T03:25:44.030Z,20.40
2022-09-14T03:28:13.424Z,20.40
2022-09-14T03:30:41.336Z,20.40
2022-09-14T03:33:09.240Z,20.40
2022-09-14T03:35:37.364Z,20.30
2022-09-14T03:38:06.678Z,20.30
2022-09-14T03:40:34.585Z,20.30
2022-09-14T03:43:02.638Z,20.30
2022-09-14T03:45:30.452Z,20.30
2022-09-14T03:47:58.370Z,20.30
2022-09-14T03:50:26.355Z,20.30
2022-09-14T03:52:54.346Z,20.40
2022-09-14T03:55:23.616Z,20.30
2022-09-14T03:57:54.926Z,20.40
2022-09-14T04:00:23.735Z,20.40
2022-09-14T04:02:51.980Z,20.30
2022-09-14T04:05:21.984Z,20.30
2022-09-14T04:07:50.110Z,20.40
2022-09-14T04:10:18.255Z,20.40
2022-09-14T04:12:47.628Z,20.50
2022-09-14T04:15:15.555Z,20.50
2022-09-14T04:17:43.519Z,20.60
2022-09-14T04:20:12.035Z,20.60
2022-09-14T04:22:39.886Z,20.60
2022-09-14T04:25:08.525Z,20.70
2022-09-14T04:27:36.492Z,20.70
2022-09-14T04:30:07.049Z,20.70
2022-09-14T04:32:35.054Z,20.70
2022-09-14T04:35:03.000Z,20.70
2022-09-14T04:37:32.830Z,20.70
2022-09-14T04:40:01.029Z,20.70
2022-09-14T04:42:30.856Z,20.60
2022-09-14T04:44:58.750Z,20.70
2022-09-14T04:47:29.897Z,20.70
2022-09-14T04:49:57.864Z,20.70
2022-09-14T04:52:26.202Z,20.70
2022-09-14T04:54:54.025Z,20.60
2022-09-14T04:57:22.110Z,20.60
2022-09-14T04:59:50.004Z,20.70
2022-09-14T05:02:18.091Z,20.60
2022-09-14T05:04:47.431Z,20.70
2022-09-14T05:07:15.995Z,20.60
2022-09-14T05:09:43.907Z,20.60
2022-09-14T05:12:11.860Z,20.60
2022-09-14T05:14:39.708Z,20.60
2022-09-14T05:17:07.690Z,20.70
2022-09-14T05:19:35.624Z,20.70
2022-09-14T05:22:04.962Z,20.70
2022-09-14T05:24:33.420Z,20.70
2022-09-14T05:27:02.413Z,20.70
2022-09-14T05:29:31.923Z,20.80
2022-09-14T05:31:59.959Z,20.90
2022-09-14T05:34:27.905Z,20.90
2022-09-14T05:36:55.818Z,21.00
2022-09-14T05:39:25.139Z,21.00
2022-09-14T05:41:53.186Z,21.10
2022-09-14T05:44:21.466Z,21.10
2022-09-14T05:46:49.410Z,21.10
2022-09-14T05:49:17.310Z,21.10
2022-09-14T05:51:45.268Z,21.10
2022-09-14T05:54:13.409Z,21.20
2022-09-14T05:56:42.807Z,21.20
2022-09-14T05:59:10.938Z,21.30
2022-09-14T06:01:38.944Z,21.40
2022-09-14T06:04:07.028Z,21.40
2022-09-14T06:06:35.242Z,21.50
2022-09-14T06:09:03.363Z,21.50
2022-09-14T06:11:33.761Z,21.60
2022-09-14T06:14:03.333Z,21.60
2022-09-14T06:16:31.659Z,21.60
2022-09-14T06:19:00.840Z,21.60
2022-09-14T06:21:31.271Z,21.50
2022-09-14T06:24:01.350Z,21.60
2022-09-14T06:26:29.223Z,21.60
2022-09-14T06:28:57.296Z,21.50
2022-09-14T06:31:26.622Z,21.60
2022-09-14T06:33:54.928Z,21.60
2022-09-14T06:36:24.424Z,21.60
2022-09-14T06:38:52.665Z,21.70
2022-09-14T06:41:22.943Z,21.70
2022-09-14T06:43:52.190Z,21.80
2022-09-14T06:46:22.130Z,21.80
2022-09-14T06:48:54.121Z,21.90
2022-09-14T06:51:23.925Z,22.00
2022-09-14T06:53:53.939Z,22.00
2022-09-14T06:56:22.540Z,22.10
2022-09-14T06:58:52.096Z,22.20
2022-09-14T07:01:21.576Z,22.20
2022-09-14T07:03:52.485Z,22.20
2022-09-14T07:06:22.248Z,22.20
2022-09-14T07:08:51.829Z,22.20
2022-09-14T07:11:21.729Z,22.20
2022-09-14T07:13:50.562Z,22.30
2022-09-14T07:16:18.607Z,22.30
2022-09-14T07:18:46.494Z,22.40
2022-09-14T07:21:18.329Z,22.30
2022-09-14T07:23:47.579Z,22.40
2022-09-14T07:26:17.688Z,22.50
2022-09-14T07:28:47.592Z,22.50
2022-09-14T07:31:17.866Z,22.60
2022-09-14T07:33:47.165Z,22.70
2022-09-14T07:36:16.807Z,22.80
2022-09-14T07:38:57.823Z,22.90
2022-09-14T07:41:27.731Z,23.00
2022-09-14T07:43:57.266Z,23.00
2022-09-14T07:46:25.528Z,23.10
2022-09-14T07:48:57.641Z,23.20
2022-09-14T07:51:28.294Z,23.30
2022-09-14T07:53:56.498Z,23.40
2022-09-14T07:56:25.999Z,23.50
2022-09-14T07:59:07.154Z,23.70
2022-09-14T08:01:44.437Z,24.10
2022-09-14T08:04:12.791Z,24.20
2022-09-14T08:06:42.197Z,24.40
2022-09-14T08:09:10.472Z,24.50
2022-09-14T08:11:38.929Z,24.70
2022-09-14T08:14:09.681Z,24.70
2022-09-14T08:16:39.134Z,24.80
2022-09-14T08:19:10.737Z,25.00
2022-09-14T08:21:42.768Z,25.20
2022-09-14T08:24:16.727Z,25.20
2022-09-14T08:26:44.736Z,25.20
2022-09-14T08:29:13.523Z,25.30
2022-09-14T08:31:43.274Z,25.30
2022-09-14T08:34:11.380Z,25.30
2022-09-14T08:36:41.268Z,25.30
2022-09-14T08:39:10.963Z,25.40
2022-09-14T08:41:46.911Z,25.50
2022-09-14T08:44:19.638Z,25.60
2022-09-14T08:46:51.958Z,25.70
2022-09-14T08:49:26.479Z,26.00
2022-09-14T08:51:54.685Z,26.00
2022-09-14T08:54:22.803Z,26.30
2022-09-14T08:56:58.328Z,26.40
2022-09-14T08:59:44.363Z,26.50
2022-09-14T09:02:27.305Z,26.70
2022-09-14T09:04:58.971Z,26.70
2022-09-14T09:07:36.986Z,26.80
2022-09-14T09:10:08.226Z,26.80
2022-09-14T09:12:40.362Z,26.80
2022-09-14T09:15:19.022Z,27.00
2022-09-14T09:17:49.802Z,27.30
2022-09-14T09:20:23.485Z,27.60
2022-09-14T09:22:57.848Z,27.90
2022-09-14T09:25:31.228Z,28.00
2022-09-14T09:28:10.488Z,28.00
2022-09-14T09:30:40.281Z,28.20
2022-09-14T09:33:08.482Z,28.40
2022-09-14T09:35:36.397Z,28.40
2022-09-14T09:38:14.320Z,28.40
2022-09-14T09:40:47.137Z,28.60
2022-09-14T09:43:33.262Z,28.40
2022-09-14T09:46:08.377Z,28.50
2022-09-14T09:48:42.024Z,28.40
2022-09-14T09:51:13.692Z,28.30
2022-09-14T09:53:49.458Z,28.10
2022-09-14T09:56:23.947Z,27.90
2022-09-14T09:58:53.598Z,27.90
2022-09-14T10:01:27.435Z,27.70
2022-09-14T10:04:04.384Z,27.70
2022-09-14T10:06:32.592Z,27.70
2022-09-14T10:09:00.660Z,27.60
2022-09-14T10:11:32.172Z,27.90
2022-09-14T10:14:02.354Z,28.20
2022-09-14T10:16:37.819Z,28.20
2022-09-14T10:19:14.882Z,28.20
2022-09-14T10:22:25.793Z,28.30
2022-09-14T10:24:59.618Z,28.10
2022-09-14T10:27:37.799Z,28.20
2022-09-14T10:30:13.596Z,29.10
2022-09-14T10:32:44.814Z,30.20
2022-09-14T10:35:17.162Z,30.60
2022-09-14T10:38:07.573Z,30.90
2022-09-14T10:40:38.830Z,30.90
2022-09-14T10:43:17.980Z,30.80
2022-09-14T10:45:51.993Z,30.50
2022-09-14T10:48:45.545Z,30.20
2022-09-14T10:51:43.266Z,29.70
2022-09-14T10:54:39.319Z,29.40
2022-09-14T10:57:16.399Z,29.10
2022-09-14T10:59:54.475Z,29.10
2022-09-14T11:02:55.813Z,29.60
2022-09-14T11:05:26.733Z,30.10
2022-09-14T11:08:03.258Z,30.60
2022-09-14T11:10:39.209Z,30.90
2022-09-14T11:13:23.950Z,32.20
2022-09-14T11:15:59.859Z,32.30
2022-09-14T11:18:38.607Z,31.80
2022-09-14T11:21:17.469Z,31.00
2022-09-14T11:23:50.232Z,30.50
2022-09-14T11:26:24.567Z,30.10
2022-09-14T11:28:55.184Z,29.60
2022-09-14T11:31:27.356Z,29.50
2022-09-14T11:34:05.760Z,29.50
2022-09-14T11:36:38.122Z,29.40
2022-09-14T11:39:18.762Z,29.20
2022-09-14T11:41:52.618Z,29.00
2022-09-14T11:44:24.329Z,29.00
2022-09-14T11:47:00.782Z,28.90
2022-09-14T11:49:35.491Z,28.70
2022-09-14T11:52:08.899Z,28.40
2022-09-14T11:54:46.097Z,28.40
2022-09-14T11:57:18.659Z,28.40
2022-09-14T11:59:52.967Z,28.30
2022-09-14T12:03:01.508Z,28.40
2022-09-14T12:05:40.125Z,28.50
2022-09-14T12:08:36.852Z,28.40
2022-09-14T12:11:29.608Z,28.40
2022-09-14T12:14:26.559Z,28.50
2022-09-14T12:17:38.364Z,28.40
2022-09-14T12:20:41.927Z,28.30
2022-09-14T12:23:21.743Z,28.00
2022-09-14T12:26:15.009Z,27.90
2022-09-14T12:28:51.330Z,28.00
2022-09-14T12:31:49.271Z,28.10
2022-09-14T12:34:20.580Z,28.30
2022-09-14T12:37:27.522Z,28.30
2022-09-14T12:40:37.253Z,28.40
2022-09-14T12:43:48.554Z,28.60
2022-09-14T12:46:35.981Z,28.60
2022-09-14T12:49:05.939Z,28.80
2022-09-14T12:51:43.756Z,28.80
2022-09-14T12:54:23.484Z,28.70
2022-09-14T12:57:04.528Z,28.50
2022-09-14T12:59:43.023Z,28.30
2022-09-14T13:03:00.952Z,28.30
2022-09-14T13:05:31.469Z,28.00
2022-09-14T13:07:59.980Z,27.90
2022-09-14T13:10:31.825Z,27.80
2022-09-14T13:13:03.069Z,27.80
2022-09-14T13:15:36.563Z,27.70
2022-09-14T13:18:06.786Z,27.70
2022-09-14T13:20:36.988Z,27.60
2022-09-14T13:23:20.163Z,27.70
2022-09-14T13:25:48.448Z,27.70
2022-09-14T13:28:20.359Z,27.60
2022-09-14T13:30:55.760Z,27.50
2022-09-14T13:33:24.201Z,27.40
2022-09-14T13:35:54.779Z,27.50
2022-09-14T13:38:25.207Z,27.40
2022-09-14T13:40:55.180Z,27.40
2022-09-14T13:43:25.293Z,27.40
2022-09-14T13:45:53.495Z,27.30
2022-09-14T13:48:22.205Z,27.30
2022-09-14T13:50:52.145Z,27.30
2022-09-14T13:53:45.597Z,27.30
2022-09-14T13:56:21.899Z,27.40
2022-09-14T13:59:01.828Z,27.60
2022-09-14T14:01:30.873Z,27.60
2022-09-14T14:03:59.060Z,27.50
2022-09-14T14:06:28.967Z,27.50
2022-09-14T14:09:01.178Z,27.60
2022-09-14T14:11:33.124Z,27.60
2022-09-14T14:14:27.635Z,27.40
2022-09-14T14:17:25.570Z,27.40
2022-09-14T14:19:55.061Z,27.20
2022-09-14T14:22:27.237Z,27.10
2022-09-14T14:25:12.955Z,27.10
2022-09-14T14:27:44.727Z,27.00
2022-09-14T14:30:18.426Z,27.00
2022-09-14T14:32:51.708Z,27.00
2022-09-14T14:35:22.483Z,26.80
2022-09-14T14:37:51.775Z,26.80
2022-09-14T14:40:20.637Z,26.80
2022-09-14T14:42:51.256Z,26.70
2022-09-14T14:45:26.245Z,26.70
2022-09-14T14:47:56.019Z,26.50
2022-09-14T14:50:26.965Z,26.50
2022-09-14T14:52:55.085Z,26.40
2022-09-14T14:55:25.958Z,26.30
2022-09-14T14:57:54.100Z,26.40
2022-09-14T15:00:25.195Z,26.30
2022-09-14T15:02:53.066Z,26.30
2022-09-14T15:05:21.335Z,26.30
2022-09-14T15:07:52.458Z,26.20
2022-09-14T15:10:22.199Z,26.10
2022-09-14T15:12:50.202Z,26.10
2022-09-14T15:15:20.558Z,26.00
2022-09-14T15:17:50.005Z,26.00
2022-09-14T15:20:19.988Z,26.00
2022-09-14T15:22:47.937Z,25.70
2022-09-14T15:25:17.203Z,25.50
2022-09-14T15:27:45.440Z,25.20
2022-09-14T15:30:14.417Z,25.00
2022-09-14T15:32:42.358Z,24.80
2022-09-14T15:35:14.681Z,24.60
2022-09-14T15:37:42.930Z,24.40
2022-09-14T15:40:12.009Z,24.20
2022-09-14T15:42:40.133Z,24.00
2022-09-14T15:45:08.887Z,23.80
2022-09-14T15:47:36.927Z,23.70
2022-09-14T15:50:05.801Z,23.60
2022-09-14T15:52:37.917Z,23.60
2022-09-14T15:55:07.886Z,23.40
2022-09-14T15:57:36.572Z,22.90
2022-09-14T16:00:07.134Z,22.60
2022-09-14T16:02:35.084Z,22.20
2022-09-14T16:05:03.227Z,21.90
2022-09-14T16:07:31.310Z,21.70
2022-09-14T16:10:00.657Z,21.60
2022-09-14T16:12:28.711Z,21.50
2022-09-14T16:14:56.648Z,21.40
2022-09-14T16:17:24.539Z,21.40
2022-09-14T16:19:53.124Z,21.40
2022-09-14T16:22:21.803Z,21.40
2022-09-14T16:24:49.957Z,21.20
2022-09-14T16:27:19.660Z,21.40
2022-09-14T16:29:47.663Z,21.30
2022-09-14T16:32:15.691Z,21.30
2022-09-14T16:34:43.796Z,21.20
2022-09-14T16:37:11.958Z,21.30
2022-09-14T16:39:40.081Z,21.20
2022-09-14T16:42:08.342Z,21.10
2022-09-14T16:44:37.817Z,21.20
2022-09-14T16:47:05.938Z,21.20
2022-09-14T16:49:33.923Z,21.30
2022-09-14T16:52:01.790Z,21.30
2022-09-14T16:54:32.258Z,21.30
2022-09-14T16:57:01.392Z,21.30
2022-09-14T16:59:29.629Z,21.30
2022-09-14T17:01:59.041Z,21.20
2022-09-14T17:04:26.951Z,21.10
2022-09-14T17:06:56.040Z,21.10
2022-09-14T17:09:26.405Z,21.10
2022-09-14T17:11:56.485Z,21.10
2022-09-14T17:14:26.478Z,21.00
2022-09-14T17:16:54.496Z,21.00
2022-09-14T17:19:23.934Z,21.00
2022-09-14T17:21:52.386Z,20.90
2022-09-14T17:24:21.650Z,21.00
2022-09-14T17:26:50.061Z,20.90
2022-09-14T17:29:18.619Z,20.90
2022-09-14T17:31:47.053Z,20.80
2022-09-14T17:34:17.160Z,20.90
2022-09-14T17:36:46.862Z,20.80
2022-09-14T17:39:15.456Z,20.80
2022-09-14T17:41:44.459Z,20.80
2022-09-14T17:44:14.264Z,20.80
2022-09-14T17:46:52.910Z,20.90
2022-09-14T17:49:21.997Z,20.80
2022-09-14T17:51:52.040Z,20.70
2022-09-14T17:54:20.625Z,20.70
2022-09-14T17:56:48.907Z,20.60
2022-09-14T17:59:19.892Z,20.60
2022-09-14T18:01:48.274Z,20.70
2022-09-14T18:04:16.808Z,20.70
2022-09-14T18:06:47.506Z,20.80
2022-09-14T18:09:18.879Z,20.80
2022-09-14T18:11:48.178Z,20.70
2022-09-14T18:14:16.810Z,20.70
2022-09-14T18:16:45.406Z,20.70
2022-09-14T18:19:14.258Z,20.60
2022-09-14T18:21:43.050Z,20.60
2022-09-14T18:24:12.448Z,20.60
2022-09-14T18:26:43.648Z,20.60
2022-09-14T18:29:15.308Z,20.50
2022-09-14T18:31:44.409Z,20.50
2022-09-14T18:34:12.475Z,20.50
2022-09-14T18:36:40.465Z,20.50
2022-09-14T18:39:08.628Z,20.40
2022-09-14T18:41:36.613Z,20.50
2022-09-14T18:44:06.238Z,20.50
2022-09-14T18:46:34.238Z,20.50
2022-09-14T18:49:03.171Z,20.50
2022-09-14T18:51:32.778Z,20.60
2022-09-14T18:54:03.156Z,20.60
2022-09-14T18:56:33.020Z,20.60
2022-09-14T18:59:01.976Z,20.60
2022-09-14T19:01:31.577Z,20.70
2022-09-14T19:04:00.032Z,20.80
2022-09-14T19:06:28.097Z,20.80
2022-09-14T19:08:56.079Z,20.80
2022-09-14T19:11:26.978Z,20.70
2022-09-14T19:13:57.288Z,20.80
2022-09-14T19:16:25.788Z,20.90
2022-09-14T19:18:55.924Z,20.90
2022-09-14T19:21:25.362Z,20.90
2022-09-14T19:24:00.345Z,20.80
2022-09-14T19:26:30.307Z,20.90
2022-09-14T19:29:00.347Z,20.80
2022-09-14T19:31:30.407Z,20.70
2022-09-14T19:34:00.688Z,20.80
2022-09-14T19:36:29.583Z,20.70
2022-09-14T19:39:01.805Z,20.70
2022-09-14T19:41:30.865Z,20.60
2022-09-14T19:43:59.377Z,20.50
2022-09-14T19:46:27.950Z,20.60
2022-09-14T19:48:55.982Z,20.70
2022-09-14T19:51:26.805Z,20.50
2022-09-14T19:53:56.708Z,20.50
2022-09-14T19:56:26.955Z,20.50
2022-09-14T19:58:57.264Z,20.40
2022-09-14T20:01:26.527Z,20.40
2022-09-14T20:03:54.599Z,20.40
2022-09-14T20:06:26.229Z,20.40
2022-09-14T20:08:57.058Z,20.40
2022-09-14T20:11:26.788Z,20.30
2022-09-14T20:13:55.618Z,20.30
2022-09-14T20:16:25.660Z,20.10
2022-09-14T20:18:53.699Z,20.20
2022-09-14T20:21:23.375Z,20.20
2022-09-14T20:24:15.028Z,20.20
2022-09-14T20:26:44.341Z,20.20
2022-09-14T20:29:12.381Z,20.20
2022-09-14T20:31:40.369Z,20.20
2022-09-14T20:34:08.309Z,20.30
2022-09-14T20:36:36.366Z,20.20
2022-09-14T20:39:06.173Z,20.20
2022-09-14T20:41:36.551Z,20.20
2022-09-14T20:44:05.333Z,20.20
2022-09-14T20:46:35.828Z,20.20
2022-09-14T20:49:05.696Z,20.20
2022-09-14T20:51:35.132Z,20.20
2022-09-14T20:54:03.059Z,20.20
2022-09-14T20:56:34.703Z,20.10
2022-09-14T20:59:04.035Z,20.00
2022-09-14T21:01:34.219Z,20.00
2022-09-14T21:04:05.170Z,20.00
2022-09-14T21:06:35.843Z,20.00
2022-09-14T21:09:03.790Z,19.90
2022-09-14T21:11:33.421Z,19.90
2022-09-14T21:14:01.364Z,19.90
2022-09-14T21:16:31.326Z,19.90
2022-09-14T21:19:01.084Z,19.80
2022-09-14T21:21:29.836Z,19.90
2022-09-14T21:23:59.792Z,19.90
2022-09-14T21:26:28.923Z,19.80
2022-09-14T21:29:00.641Z,19.90
2022-09-14T21:31:29.934Z,19.90
2022-09-14T21:34:01.665Z,20.00
2022-09-14T21:36:31.938Z,19.90
2022-09-14T21:39:01.071Z,19.90
2022-09-14T21:41:31.063Z,20.00
2022-09-14T21:44:00.411Z,20.00
2022-09-14T21:46:28.836Z,20.10
2022-09-14T21:48:57.135Z,20.00
2022-09-14T21:51:26.879Z,20.10
2022-09-14T21:53:56.500Z,20.20
2022-09-14T21:56:26.835Z,20.20
2022-09-14T21:58:56.072Z,20.20
2022-09-14T22:01:26.024Z,20.20
2022-09-14T22:03:55.473Z,20.20
2022-09-14T22:06:25.435Z,20.20
2022-09-14T22:08:53.393Z,20.20
2022-09-14T22:11:23.678Z,20.20
2022-09-14T22:13:54.897Z,20.00
2022-09-14T22:16:25.635Z,20.20
2022-09-14T22:18:57.260Z,20.20
2022-09-14T22:21:27.606Z,20.10
2022-09-14T22:23:58.034Z,20.20
2022-09-14T22:26:27.857Z,20.10
2022-09-14T22:28:56.471Z,20.10
2022-09-14T22:31:27.030Z,20.10
2022-09-14T22:33:56.158Z,20.10
2022-09-14T22:36:25.865Z,20.10
2022-09-14T22:38:57.436Z,20.10
2022-09-14T22:41:27.221Z,20.00
2022-09-14T22:43:56.093Z,20.00
2022-09-14T22:46:26.258Z,20.10
2022-09-14T22:48:54.548Z,20.00
2022-09-14T22:51:24.754Z,20.00
2022-09-14T22:53:53.112Z,20.00
2022-09-14T22:56:23.337Z,20.10
2022-09-14T22:58:51.549Z,20.10
2022-09-14T23:01:21.867Z,20.10
2022-09-14T23:03:56.024Z,20.10
2022-09-14T23:06:27.675Z,20.10
2022-09-14T23:08:55.635Z,20.00
2022-09-14T23:11:23.574Z,19.90
2022-09-14T23:13:51.714Z,19.80
2022-09-14T23:16:21.831Z,19.70
2022-09-14T23:18:53.620Z,19.60
2022-09-14T23:21:21.967Z,19.60
2022-09-14T23:23:53.320Z,19.50
2022-09-14T23:26:21.706Z,19.40
2022-09-14T23:28:53.459Z,19.40
2022-09-14T23:31:22.021Z,19.40
2022-09-14T23:33:52.740Z,19.40
2022-09-14T23:36:22.201Z,19.40
2022-09-14T23:38:50.612Z,19.40
2022-09-14T23:41:19.718Z,19.40
2022-09-14T23:43:48.011Z,19.50
2022-09-14T23:46:16.955Z,19.50
2022-09-14T23:48:45.069Z,19.60
2022-09-14T23:51:15.379Z,19.60
2022-09-14T23:53:44.043Z,19.50
2022-09-14T23:56:12.292Z,19.50
2022-09-14T23:58:41.291Z,19.50
